createdAt,value
2018-07-01T00:00:52.123Z,14.20
2018-07-01T00:03:20.592Z,14.20
2018-07-01T00:05:49.024Z,14.20
2018-07-01T00:08:17.586Z,14.20
2018-07-01T00:10:46.039Z,14.20
2018-07-01T00:13:14.501Z,14.20
2018-07-01T00:15:42.945Z,14.10
2018-07-01T00:18:11.432Z,14.10
2018-07-01T00:20:39.891Z,14.10
2018-07-01T00:23:08.420Z,14.00
2018-07-01T00:25:36.880Z,14.00
2018-07-01T00:28:05.408Z,13.90
2018-07-01T00:30:33.845Z,13.80
2018-07-01T00:33:02.323Z,13.70
2018-07-01T00:35:30.759Z,13.70
2018-07-01T00:37:59.311Z,13.70
2018-07-01T00:40:27.743Z,13.80
2018-07-01T00:42:56.240Z,13.70
2018-07-01T00:45:24.662Z,13.70
2018-07-01T00:47:53.122Z,13.60
2018-07-01T00:50:21.578Z,13.50
2018-07-01T00:52:50.073Z,13.30
2018-07-01T00:55:18.518Z,13.20
2018-07-01T00:57:47.005Z,13.20
2018-07-01T01:00:15.517Z,13.20
2018-07-01T01:02:43.983Z,13.20
2018-07-01T01:05:12.409Z,13.10
2018-07-01T01:07:40.973Z,13.10
2018-07-01T01:10:09.456Z,13.10
2018-07-01T01:12:37.929Z,13.10
2018-07-01T01:15:06.420Z,13.10
2018-07-01T01:17:34.853Z,13.00
2018-07-01T01:20:03.357Z,13.00
2018-07-01T01:22:31.828Z,13.00
2018-07-01T01:25:00.280Z,12.90
2018-07-01T01:27:28.725Z,12.90
2018-07-01T01:29:57.179Z,12.80
2018-07-01T01:32:26.504Z,12.80
2018-07-01T01:34:55.038Z,12.70
2018-07-01T01:37:23.525Z,12.60
2018-07-01T01:39:52.079Z,12.60
2018-07-01T01:43:28.840Z,12.50
2018-07-01T01:46:04.745Z,12.40
2018-07-01T01:48:43.568Z,12.30
2018-07-01T01:51:16.227Z,12.30
2018-07-01T01:53:48.793Z,12.30
2018-07-01T01:56:35.552Z,12.20
2018-07-01T01:59:09.416Z,12.20
2018-07-01T02:04:34.312Z,12.20
2018-07-01T02:07:06.735Z,12.20
2018-07-01T02:09:36.387Z,12.20
2018-07-01T02:12:07.076Z,12.20
2018-07-01T02:14:41.383Z,12.10
2018-07-01T02:17:14.501Z,12.20
2018-07-01T02:19:43.000Z,12.10
2018-07-01T02:22:13.986Z,12.10
2018-07-01T02:24:45.256Z,12.00
2018-07-01T02:27:13.736Z,12.00
2018-07-01T02:29:42.260Z,11.90
2018-07-01T02:32:10.703Z,11.90
2018-07-01T02:34:39.183Z,11.90
2018-07-01T02:37:07.605Z,11.90
2018-07-01T02:39:36.153Z,11.90
2018-07-01T02:42:04.878Z,11.90
2018-07-01T02:44:33.359Z,11.90
2018-07-01T02:47:01.832Z,11.90
2018-07-01T02:49:30.313Z,12.00
2018-07-01T02:51:58.807Z,12.00
2018-07-01T02:54:27.218Z,12.00
2018-07-01T02:56:55.693Z,12.00
2018-07-01T02:59:24.137Z,11.90
2018-07-01T03:01:52.623Z,11.80
2018-07-01T03:04:21.077Z,11.70
2018-07-01T03:06:49.619Z,11.70
2018-07-01T03:09:18.105Z,11.60
2018-07-01T03:11:46.581Z,11.60
2018-07-01T03:14:15.001Z,11.60
2018-07-01T03:16:43.452Z,11.60
2018-07-01T03:19:11.897Z,11.50
2018-07-01T03:21:40.357Z,11.50
2018-07-01T03:24:08.817Z,11.50
2018-07-01T03:26:37.264Z,11.50
2018-07-01T03:29:06.005Z,11.50
2018-07-01T03:31:34.472Z,11.40
2018-07-01T03:34:02.917Z,11.50
2018-07-01T03:36:31.408Z,11.40
2018-07-01T03:38:59.850Z,11.40
2018-07-01T03:41:28.341Z,11.40
2018-07-01T03:43:56.782Z,11.50
2018-07-01T03:46:25.257Z,11.50
2018-07-01T03:48:53.692Z,11.60
2018-07-01T03:51:22.187Z,11.60
2018-07-01T03:53:50.609Z,11.60
2018-07-01T03:56:19.078Z,11.70
2018-07-01T03:58:47.521Z,11.70
2018-07-01T04:01:16.022Z,11.80
2018-07-01T04:03:44.448Z,11.80
2018-07-01T04:06:12.920Z,11.80
2018-07-01T04:08:41.386Z,11.80
2018-07-01T04:11:09.837Z,11.80
2018-07-01T04:13:38.287Z,11.80
2018-07-01T04:16:06.749Z,11.80
2018-07-01T04:18:35.177Z,11.80
2018-07-01T04:21:03.737Z,11.90
2018-07-01T04:23:32.170Z,11.80
2018-07-01T04:26:00.646Z,11.80
2018-07-01T04:28:29.107Z,11.90
2018-07-01T04:30:57.569Z,11.90
2018-07-01T04:33:26.108Z,11.90
2018-07-01T04:35:54.731Z,12.00
2018-07-01T04:38:23.413Z,12.00
2018-07-01T04:40:51.846Z,12.00
2018-07-01T04:43:20.313Z,12.10
2018-07-01T04:45:48.760Z,12.10
2018-07-01T04:48:17.208Z,12.20
2018-07-01T04:50:45.722Z,12.30
2018-07-01T04:53:14.213Z,12.30
2018-07-01T04:55:42.677Z,12.40
2018-07-01T04:58:11.124Z,12.40
2018-07-01T05:00:39.601Z,12.40
2018-07-01T05:03:08.065Z,12.40
2018-07-01T05:05:36.557Z,12.40
2018-07-01T05:08:05.329Z,12.50
2018-07-01T05:13:01.908Z,12.60
2018-07-01T05:15:30.365Z,12.70
2018-07-01T05:17:58.813Z,12.80
2018-07-01T05:20:27.266Z,12.90
2018-07-01T05:22:55.740Z,12.90
2018-07-01T05:25:24.189Z,12.90
2018-07-01T05:27:52.638Z,13.10
2018-07-01T05:30:21.070Z,13.10
2018-07-01T05:32:49.525Z,13.20
2018-07-01T05:35:17.974Z,13.20
2018-07-01T05:40:14.622Z,13.70
2018-07-01T05:42:43.077Z,13.70
2018-07-01T05:45:11.492Z,13.80
2018-07-01T05:47:39.969Z,14.00
2018-07-01T05:50:08.614Z,14.10
2018-07-01T05:52:37.108Z,14.10
2018-07-01T05:55:05.636Z,14.50
2018-07-01T05:57:34.096Z,14.60
2018-07-01T06:00:02.522Z,15.00
2018-07-01T06:02:31.002Z,15.40
2018-07-01T06:04:59.448Z,15.60
2018-07-01T06:07:27.908Z,15.80
2018-07-01T06:09:56.401Z,16.00
2018-07-01T06:12:24.812Z,16.30
2018-07-01T06:14:53.272Z,16.70
2018-07-01T06:17:21.731Z,17.00
2018-07-01T06:19:50.206Z,17.60
2018-07-01T06:22:19.011Z,18.10
2018-07-01T06:24:47.509Z,18.90
2018-07-01T06:27:15.999Z,19.00
2018-07-01T06:32:12.754Z,19.80
2018-07-01T06:34:41.212Z,20.50
2018-07-01T06:37:09.917Z,20.60
2018-07-01T06:39:38.361Z,21.30
2018-07-01T06:42:06.780Z,21.50
2018-07-01T06:44:35.248Z,21.40
2018-07-01T06:47:03.677Z,21.50
2018-07-01T06:49:32.205Z,21.90
2018-07-01T06:52:00.598Z,22.30
2018-07-01T06:54:29.065Z,22.70
2018-07-01T06:56:57.488Z,24.40
2018-07-01T06:59:25.944Z,23.90
2018-07-01T07:01:54.417Z,23.80
2018-07-01T07:04:22.880Z,24.50
2018-07-01T07:06:51.365Z,24.80
2018-07-01T07:09:19.862Z,26.00
2018-07-01T07:11:48.313Z,26.20
2018-07-01T07:14:16.788Z,27.20
2018-07-01T07:16:45.233Z,27.00
2018-07-01T07:19:13.717Z,26.90
2018-07-01T07:21:42.184Z,26.00
2018-07-01T07:24:10.657Z,25.40
2018-07-01T07:26:39.420Z,26.20
2018-07-01T07:29:07.882Z,26.10
2018-07-01T07:31:36.376Z,26.80
2018-07-01T07:34:04.854Z,26.70
2018-07-01T07:36:33.397Z,26.60
2018-07-01T07:39:01.866Z,27.40
2018-07-01T07:43:58.485Z,28.40
2018-07-01T07:46:26.917Z,28.20
2018-07-01T07:48:55.341Z,28.20
2018-07-01T07:51:23.815Z,28.60
2018-07-01T07:53:52.261Z,28.90
2018-07-01T07:56:20.751Z,28.70
2018-07-01T07:58:49.205Z,29.00
2018-07-01T08:01:17.705Z,29.10
2018-07-01T08:03:46.144Z,29.40
2018-07-01T08:06:14.638Z,29.10
2018-07-01T08:08:43.181Z,29.30
2018-07-01T08:13:39.905Z,29.20
2018-07-01T08:16:08.533Z,29.40
2018-07-01T08:18:37.033Z,29.40
2018-07-01T08:21:05.587Z,29.40
2018-07-01T08:23:34.348Z,29.70
2018-07-01T08:26:02.867Z,30.50
2018-07-01T08:28:31.389Z,30.90
2018-07-01T08:30:59.869Z,32.00
2018-07-01T08:33:28.305Z,32.50
2018-07-01T08:35:56.832Z,31.30
2018-07-01T08:38:25.273Z,31.10
2018-07-01T08:40:53.748Z,30.60
2018-07-01T08:43:22.180Z,30.80
2018-07-01T08:45:50.653Z,30.70
2018-07-01T08:48:19.110Z,30.70
2018-07-01T08:50:47.624Z,31.20
2018-07-01T08:53:16.072Z,32.00
2018-07-01T08:55:44.560Z,32.10
2018-07-01T08:58:13.025Z,30.20
2018-07-01T09:00:41.473Z,30.30
2018-07-01T09:03:09.956Z,30.00
2018-07-01T09:05:38.458Z,30.00
2018-07-01T09:08:07.064Z,31.10
2018-07-01T09:10:35.613Z,31.40
2018-07-01T09:13:04.095Z,31.50
2018-07-01T09:15:32.569Z,32.10
2018-07-01T09:18:00.994Z,32.10
2018-07-01T09:20:29.457Z,32.10
2018-07-01T09:22:57.953Z,32.30
2018-07-01T09:25:26.417Z,31.40
2018-07-01T09:27:54.885Z,30.90
2018-07-01T09:30:23.351Z,30.70
2018-07-01T09:35:19.987Z,31.60
2018-07-01T09:37:48.466Z,31.40
2018-07-01T09:40:16.897Z,31.40
2018-07-01T09:42:45.381Z,32.20
2018-07-01T09:45:13.833Z,32.30
2018-07-01T09:47:42.324Z,32.30
2018-07-01T09:50:10.788Z,31.30
2018-07-01T09:52:39.272Z,31.60
2018-07-01T09:55:07.729Z,31.10
2018-07-01T09:57:36.201Z,30.10
2018-07-01T10:00:05.772Z,29.60
2018-07-01T10:02:34.231Z,29.60
2018-07-01T10:05:02.653Z,30.20
2018-07-01T10:07:31.092Z,30.40
2018-07-01T10:09:59.596Z,31.90
2018-07-01T10:12:28.045Z,34.00
2018-07-01T10:14:56.504Z,34.20
2018-07-01T10:17:24.965Z,32.70
2018-07-01T10:19:53.408Z,32.90
2018-07-01T10:22:21.906Z,33.50
2018-07-01T10:24:50.428Z,33.40
2018-07-01T10:27:18.935Z,33.50
2018-07-01T10:29:47.350Z,32.90
2018-07-01T10:32:15.838Z,32.20
2018-07-01T10:34:44.263Z,32.10
2018-07-01T10:37:12.909Z,32.00
2018-07-01T10:39:41.370Z,32.20
2018-07-01T10:42:09.909Z,32.40
2018-07-01T10:44:38.340Z,31.80
2018-07-01T10:47:06.873Z,31.10
2018-07-01T10:49:35.341Z,30.50
2018-07-01T10:52:03.848Z,30.60
2018-07-01T10:54:32.301Z,30.70
2018-07-01T10:57:00.794Z,30.50
2018-07-01T10:59:29.228Z,29.70
2018-07-01T11:01:57.728Z,27.30
2018-07-01T11:04:26.165Z,26.10
2018-07-01T11:06:54.649Z,24.80
2018-07-01T11:09:23.131Z,23.80
2018-07-01T11:11:51.605Z,23.40
2018-07-01T11:14:20.145Z,23.30
2018-07-01T11:16:48.729Z,23.20
2018-07-01T11:19:17.205Z,22.80
2018-07-01T11:21:45.669Z,22.80
2018-07-01T11:24:14.301Z,22.50
2018-07-01T11:26:42.793Z,22.30
2018-07-01T11:29:11.193Z,22.10
2018-07-01T11:31:39.629Z,22.10
2018-07-01T11:34:08.120Z,22.20
2018-07-01T11:36:36.609Z,22.20
2018-07-01T11:39:08.249Z,22.30
2018-07-01T11:41:36.718Z,22.30
2018-07-01T11:44:05.209Z,22.20
2018-07-01T11:46:33.681Z,22.10
2018-07-01T11:49:02.157Z,22.20
2018-07-01T11:51:30.589Z,22.20
2018-07-01T11:53:59.080Z,22.10
2018-07-01T11:56:27.517Z,22.00
2018-07-01T11:58:56.014Z,22.00
2018-07-01T12:01:24.457Z,22.10
2018-07-01T12:03:52.940Z,22.10
2018-07-01T12:06:21.361Z,21.90
2018-07-01T12:08:49.833Z,21.90
2018-07-01T12:11:18.267Z,21.90
2018-07-01T12:13:46.728Z,21.90
2018-07-01T12:16:15.173Z,21.80
2018-07-01T12:18:43.632Z,21.90
2018-07-01T12:21:12.132Z,21.90
2018-07-01T12:23:40.703Z,21.80
2018-07-01T12:26:09.109Z,21.70
2018-07-01T12:28:37.653Z,21.80
2018-07-01T12:31:06.125Z,21.90
2018-07-01T12:33:34.708Z,22.00
2018-07-01T12:36:03.165Z,22.00
2018-07-01T12:38:31.613Z,21.90
2018-07-01T12:41:00.094Z,21.90
2018-07-01T12:43:28.608Z,21.90
2018-07-01T12:45:57.030Z,22.00
2018-07-01T12:48:25.469Z,21.90
2018-07-01T12:50:53.924Z,21.90
2018-07-01T12:53:22.434Z,21.90
2018-07-01T12:55:50.912Z,21.90
2018-07-01T12:58:19.460Z,21.90
2018-07-01T13:00:47.869Z,21.90
2018-07-01T13:03:16.327Z,21.80
2018-07-01T13:05:44.796Z,21.80
2018-07-01T13:08:13.297Z,21.80
2018-07-01T13:10:41.768Z,21.70
2018-07-01T13:13:10.213Z,21.60
2018-07-01T13:15:38.701Z,21.70
2018-07-01T13:18:07.413Z,21.70
2018-07-01T13:20:35.894Z,21.70
2018-07-01T13:25:32.487Z,21.70
2018-07-01T13:28:00.945Z,21.60
2018-07-01T13:30:29.426Z,21.60
2018-07-01T13:32:57.907Z,21.60
2018-07-01T13:35:26.425Z,21.60
2018-07-01T13:37:54.837Z,21.60
2018-07-01T13:40:23.309Z,21.60
2018-07-01T13:45:19.957Z,21.60
2018-07-01T13:47:48.388Z,21.70
2018-07-01T13:50:16.864Z,21.70
2018-07-01T13:52:45.352Z,21.70
2018-07-01T13:55:13.883Z,21.60
2018-07-01T13:57:42.385Z,21.70
2018-07-01T14:00:10.900Z,21.70
2018-07-01T14:02:39.368Z,21.70
2018-07-01T14:05:07.856Z,21.60
2018-07-01T14:07:36.290Z,21.60
2018-07-01T14:10:05.325Z,21.60
2018-07-01T14:12:34.020Z,21.50
2018-07-01T14:15:02.526Z,21.50
2018-07-01T14:17:31.446Z,21.50
2018-07-01T14:19:59.917Z,21.50
2018-07-01T14:22:28.378Z,21.50
2018-07-01T14:24:56.861Z,21.50
2018-07-01T14:27:25.384Z,21.50
2018-07-01T14:29:53.902Z,21.70
2018-07-01T14:32:22.341Z,21.70
2018-07-01T14:34:50.817Z,21.60
2018-07-01T14:37:19.277Z,21.60
2018-07-01T14:39:47.754Z,21.60
2018-07-01T14:42:16.174Z,21.60
2018-07-01T14:44:44.659Z,21.70
2018-07-01T14:47:13.075Z,21.70
2018-07-01T14:49:41.510Z,21.70
2018-07-01T14:52:09.973Z,21.70
2018-07-01T14:54:38.436Z,21.70
2018-07-01T14:57:06.929Z,21.60
2018-07-01T14:59:35.397Z,21.60
2018-07-01T15:02:03.973Z,21.70
2018-07-01T15:04:32.404Z,21.70
2018-07-01T15:07:00.989Z,21.70
2018-07-01T15:09:29.434Z,21.60
2018-07-01T15:11:57.989Z,21.50
2018-07-01T15:14:26.436Z,21.50
2018-07-01T15:16:54.921Z,21.50
2018-07-01T15:19:23.405Z,21.50
2018-07-01T15:21:51.913Z,21.60
2018-07-01T15:24:20.385Z,21.50
2018-07-01T15:26:48.879Z,21.60
2018-07-01T15:29:17.326Z,21.60
2018-07-01T15:31:45.832Z,21.60
2018-07-01T15:34:14.393Z,21.60
2018-07-01T15:36:42.859Z,21.60
2018-07-01T15:39:12.089Z,21.60
2018-07-01T15:41:40.660Z,21.50
2018-07-01T15:44:09.145Z,21.50
2018-07-01T15:46:37.936Z,21.40
2018-07-01T15:49:06.402Z,21.40
2018-07-01T15:51:34.932Z,21.40
2018-07-01T15:54:03.419Z,21.40
2018-07-01T15:56:31.918Z,21.40
2018-07-01T15:59:00.413Z,21.40
2018-07-01T16:01:28.921Z,21.40
2018-07-01T16:03:57.433Z,21.40
2018-07-01T16:06:25.999Z,21.40
2018-07-01T16:08:54.463Z,21.30
2018-07-01T16:11:22.965Z,21.30
2018-07-01T16:13:51.414Z,21.20
2018-07-01T16:16:19.981Z,21.20
2018-07-01T16:18:48.426Z,21.20
2018-07-01T16:21:16.908Z,21.20
2018-07-01T16:23:45.344Z,21.20
2018-07-01T16:26:19.118Z,21.20
2018-07-01T16:28:52.774Z,21.20
2018-07-01T16:31:21.245Z,21.20
2018-07-01T16:33:49.699Z,21.20
2018-07-01T16:36:18.112Z,21.20
2018-07-01T16:38:46.578Z,21.10
2018-07-01T16:41:15.021Z,21.10
2018-07-01T16:43:43.521Z,21.10
2018-07-01T16:46:12.063Z,21.10
2018-07-01T16:48:40.629Z,21.10
2018-07-01T16:51:09.130Z,21.10
2018-07-01T16:53:37.625Z,21.10
2018-07-01T16:56:06.093Z,21.00
2018-07-01T16:58:34.619Z,20.90
2018-07-01T17:01:03.656Z,20.90
2018-07-01T17:03:32.270Z,20.90
2018-07-01T17:06:00.838Z,20.90
2018-07-01T17:08:29.389Z,21.00
2018-07-01T17:10:57.869Z,21.00
2018-07-01T17:13:26.413Z,20.90
2018-07-01T17:15:54.889Z,20.90
2018-07-01T17:20:51.776Z,20.80
2018-07-01T17:23:20.288Z,20.80
2018-07-01T17:25:53.747Z,20.70
2018-07-01T17:28:23.566Z,20.60
2018-07-01T17:30:57.436Z,20.60
2018-07-01T17:33:26.400Z,20.50
2018-07-01T17:35:55.216Z,20.50
2018-07-01T17:38:24.132Z,20.50
2018-07-01T17:40:52.559Z,20.50
2018-07-01T17:43:21.041Z,20.50
2018-07-01T17:45:49.488Z,20.40
2018-07-01T17:48:17.944Z,20.30
2018-07-01T17:50:46.441Z,20.20
2018-07-01T17:53:53.240Z,20.10
2018-07-01T17:56:21.749Z,20.10
2018-07-01T17:58:50.450Z,19.90
2018-07-01T18:01:19.206Z,19.90
2018-07-01T18:03:47.835Z,19.90
2018-07-01T18:06:16.400Z,19.90
2018-07-01T18:08:44.909Z,19.90
2018-07-01T18:11:13.420Z,19.60
2018-07-01T18:13:41.945Z,19.50
2018-07-01T18:16:10.413Z,19.50
2018-07-01T18:18:38.921Z,19.40
2018-07-01T18:21:07.385Z,19.30
2018-07-01T18:24:02.960Z,19.20
2018-07-01T18:26:04.353Z,19.10
2018-07-01T18:28:45.190Z,19.00
2018-07-01T18:31:01.415Z,18.90
2018-07-01T18:33:29.932Z,18.80
2018-07-01T18:35:58.465Z,18.70
2018-07-01T18:38:26.964Z,18.60
2018-07-01T18:40:55.503Z,18.50
2018-07-01T18:43:23.984Z,18.40
2018-07-01T18:45:52.404Z,18.30
2018-07-01T18:48:20.978Z,18.20
2018-07-01T18:50:49.528Z,18.10
2018-07-01T18:53:18.070Z,18.00
2018-07-01T18:55:46.534Z,17.90
2018-07-01T19:00:43.222Z,17.60
2018-07-01T19:03:11.764Z,17.50
2018-07-01T19:08:08.499Z,17.40
2018-07-01T19:10:37.013Z,17.30
2018-07-01T19:13:05.486Z,17.30
2018-07-01T19:15:34.020Z,17.20
2018-07-01T19:18:02.497Z,17.10
2018-07-01T19:20:31.027Z,17.00
2018-07-01T19:22:59.539Z,16.90
2018-07-01T19:25:28.061Z,16.80
2018-07-01T19:27:56.521Z,16.80
2018-07-01T19:30:24.992Z,16.70
2018-07-01T19:32:53.448Z,16.60
2018-07-01T19:35:21.964Z,16.50
2018-07-01T19:37:50.465Z,16.30
2018-07-01T19:40:18.977Z,16.30
2018-07-01T19:43:27.232Z,16.20
2018-07-01T19:45:55.683Z,16.20
2018-07-01T19:48:24.269Z,16.10
2018-07-01T19:50:52.756Z,16.00
2018-07-01T19:53:21.258Z,15.90
2018-07-01T19:55:49.877Z,15.90
2018-07-01T19:58:18.365Z,15.80
2018-07-01T20:00:46.949Z,15.70
2018-07-01T20:03:15.421Z,15.50
2018-07-01T20:05:43.941Z,15.40
2018-07-01T20:08:12.426Z,15.30
2018-07-01T20:10:41.272Z,15.20
2018-07-01T20:13:09.769Z,15.20
2018-07-01T20:15:38.245Z,15.10
2018-07-01T20:18:06.765Z,15.00
2018-07-01T20:20:35.224Z,14.90
2018-07-01T20:23:03.723Z,14.90
2018-07-01T20:25:32.300Z,14.90
2018-07-01T20:28:00.761Z,14.80
2018-07-01T20:30:29.252Z,14.80
2018-07-01T20:32:57.709Z,14.70
2018-07-01T20:35:26.186Z,14.70
2018-07-01T20:37:54.765Z,14.60
2018-07-01T20:40:23.316Z,14.60
2018-07-01T20:42:51.756Z,14.60
2018-07-01T20:45:20.207Z,14.50
2018-07-01T20:47:48.689Z,14.50
2018-07-01T20:50:17.140Z,14.40
2018-07-01T20:52:45.594Z,14.40
2018-07-01T20:55:14.136Z,14.40
2018-07-01T20:57:42.590Z,14.40
2018-07-01T21:00:11.064Z,14.40
2018-07-01T21:02:39.537Z,14.30
2018-07-01T21:05:08.097Z,14.20
2018-07-01T21:07:36.515Z,14.20
2018-07-01T21:10:05.074Z,14.20
2018-07-01T21:12:33.537Z,14.10
2018-07-01T21:15:01.995Z,14.10
2018-07-01T21:17:30.525Z,14.00
2018-07-01T21:19:58.992Z,14.00
2018-07-01T21:22:27.502Z,14.00
2018-07-01T21:24:55.949Z,14.00
2018-07-01T21:29:52.574Z,14.00
2018-07-01T21:32:21.063Z,14.00
2018-07-01T21:34:49.520Z,14.00
2018-07-01T21:37:18.009Z,13.90
2018-07-01T21:39:46.456Z,13.90
2018-07-01T21:42:14.937Z,13.80
2018-07-01T21:44:43.429Z,13.80
2018-07-01T21:47:11.964Z,13.80
2018-07-01T21:49:40.584Z,13.80
2018-07-01T21:52:09.129Z,13.70
2018-07-01T21:54:37.597Z,13.70
2018-07-01T21:57:06.083Z,13.60
2018-07-01T21:59:34.849Z,13.70
2018-07-01T22:02:03.521Z,13.70
2018-07-01T22:04:31.996Z,13.60
2018-07-01T22:09:30.508Z,13.50
2018-07-01T22:12:10.206Z,13.50
2018-07-01T22:14:49.897Z,13.50
2018-07-01T22:17:18.406Z,13.40
2018-07-01T22:19:46.862Z,13.30
2018-07-01T22:22:15.355Z,13.20
2018-07-01T22:24:43.841Z,13.20
2018-07-01T22:27:12.354Z,13.00
2018-07-01T22:29:40.814Z,13.00
2018-07-01T22:32:09.394Z,12.90
2018-07-01T22:34:37.877Z,12.80
2018-07-01T22:37:06.408Z,12.70
2018-07-01T22:39:34.801Z,12.60
2018-07-01T22:42:03.381Z,12.50
2018-07-01T22:44:32.041Z,12.40
2018-07-01T22:47:00.647Z,12.40
2018-07-01T22:49:29.102Z,12.30
2018-07-01T22:51:57.648Z,12.20
2018-07-01T22:54:26.105Z,12.20
2018-07-01T22:56:54.623Z,12.20
2018-07-01T22:59:23.120Z,12.10
2018-07-01T23:03:04.310Z,12.10
2018-07-01T23:05:32.793Z,12.10
2018-07-01T23:08:01.296Z,12.00
2018-07-01T23:10:30.644Z,11.90
2018-07-01T23:12:59.664Z,12.00
2018-07-01T23:15:28.220Z,11.90
2018-07-01T23:17:56.789Z,11.90
2018-07-01T23:20:25.237Z,11.80
2018-07-01T23:22:53.702Z,11.80
2018-07-01T23:25:22.633Z,11.80
2018-07-01T23:27:51.138Z,11.70
2018-07-01T23:30:19.621Z,11.60
2018-07-01T23:32:48.210Z,11.60
2018-07-01T23:35:16.666Z,11.50
2018-07-01T23:37:45.222Z,11.50
2018-07-01T23:40:13.730Z,11.40
2018-07-01T23:42:42.803Z,11.30
2018-07-01T23:45:15.545Z,11.30
2018-07-01T23:47:44.360Z,11.30
2018-07-01T23:50:12.918Z,11.30
2018-07-01T23:52:41.399Z,11.30
2018-07-01T23:55:10.112Z,11.30
2018-07-01T23:57:38.632Z,11.40
